sensor_id;sensor_type;location;lat;lon;timestamp;temperature;humidity
21335;DHT22;10826;52.536;13.432;2022-08-11T00:01:20;23.90;36.10
21335;DHT22;10826;52.536;13.432;2022-08-11T00:03:54;23.90;36.20
21335;DHT22;10826;52.536;13.432;2022-08-11T00:06:27;23.90;36.30
21335;DHT22;10826;52.536;13.432;2022-08-11T00:08:56;23.80;36.20
21335;DHT22;10826;52.536;13.432;2022-08-11T00:11:50;23.80;36.20
21335;DHT22;10826;52.536;13.432;2022-08-11T00:14:26;23.80;36.20
21335;DHT22;10826;52.536;13.432;2022-08-11T00:17:21;23.80;36.30
21335;DHT22;10826;52.536;13.432;2022-08-11T00:20:01;23.70;36.20
21335;DHT22;10826;52.536;13.432;2022-08-11T00:22:35;23.70;36.40
21335;DHT22;10826;52.536;13.432;2022-08-11T00:25:16;23.60;36.40
21335;DHT22;10826;52.536;13.432;2022-08-11T00:27:47;23.70;36.50
21335;DHT22;10826;52.536;13.432;2022-08-11T00:30:15;23.60;36.60
21335;DHT22;10826;52.536;13.432;2022-08-11T00:32:44;23.60;36.70
21335;DHT22;10826;52.536;13.432;2022-08-11T00:35:26;23.50;36.80
21335;DHT22;10826;52.536;13.432;2022-08-11T00:37:56;23.50;36.90
21335;DHT22;10826;52.536;13.432;2022-08-11T00:40:44;23.50;36.80
21335;DHT22;10826;52.536;13.432;2022-08-11T00:43:50;23.50;36.80
21335;DHT22;10826;52.536;13.432;2022-08-11T00:46:53;23.50;36.70
21335;DHT22;10826;52.536;13.432;2022-08-11T01:08:07;23.20;37.30
21335;DHT22;10826;52.536;13.432;2022-08-11T01:27:36;23.00;37.70
21335;DHT22;10826;52.536;13.432;2022-08-11T01:49:39;22.60;38.30
21335;DHT22;10826;52.536;13.432;2022-08-11T01:52:29;22.60;38.20
21335;DHT22;10826;52.536;13.432;2022-08-11T01:58:48;22.60;38.20
21335;DHT22;10826;52.536;13.432;2022-08-11T02:01:46;22.60;38.30
21335;DHT22;10826;52.536;13.432;2022-08-11T02:05:04;22.60;38.30
21335;DHT22;10826;52.536;13.432;2022-08-11T02:07:54;22.50;38.20
21335;DHT22;10826;52.536;13.432;2022-08-11T02:10:50;22.40;38.30
21335;DHT22;10826;52.536;13.432;2022-08-11T02:19:54;22.40;38.40
21335;DHT22;10826;52.536;13.432;2022-08-11T02:23:01;22.40;38.50
21335;DHT22;10826;52.536;13.432;2022-08-11T02:26:01;22.40;38.50
21335;DHT22;10826;52.536;13.432;2022-08-11T02:31:44;22.40;38.40
21335;DHT22;10826;52.536;13.432;2022-08-11T02:35:21;22.30;38.70
21335;DHT22;10826;52.536;13.432;2022-08-11T02:38:32;22.30;38.70
21335;DHT22;10826;52.536;13.432;2022-08-11T02:45:17;22.20;38.70
21335;DHT22;10826;52.536;13.432;2022-08-11T02:48:27;22.20;38.70
21335;DHT22;10826;52.536;13.432;2022-08-11T02:57:58;22.20;38.80
21335;DHT22;10826;52.536;13.432;2022-08-11T03:00:49;22.20;38.90
21335;DHT22;10826;52.536;13.432;2022-08-11T03:03:46;22.20;38.80
21335;DHT22;10826;52.536;13.432;2022-08-11T03:06:38;22.20;38.70
21335;DHT22;10826;52.536;13.432;2022-08-11T03:09:41;22.20;38.80
21335;DHT22;10826;52.536;13.432;2022-08-11T03:12:17;22.20;38.80
21335;DHT22;10826;52.536;13.432;2022-08-11T03:15:23;22.10;38.90
21335;DHT22;10826;52.536;13.432;2022-08-11T03:18:49;22.20;38.90
21335;DHT22;10826;52.536;13.432;2022-08-11T03:27:45;22.20;38.90
21335;DHT22;10826;52.536;13.432;2022-08-11T03:30:46;22.10;38.90
21335;DHT22;10826;52.536;13.432;2022-08-11T03:33:24;22.10;38.90
21335;DHT22;10826;52.536;13.432;2022-08-11T03:53:48;22.00;38.90
21335;DHT22;10826;52.536;13.432;2022-08-11T03:56:47;21.90;38.90
21335;DHT22;10826;52.536;13.432;2022-08-11T04:18:49;21.90;39.20
21335;DHT22;10826;52.536;13.432;2022-08-11T04:33:55;21.80;39.50
21335;DHT22;10826;52.536;13.432;2022-08-11T04:40:33;21.80;39.40
21335;DHT22;10826;52.536;13.432;2022-08-11T04:49:19;21.80;39.40
21335;DHT22;10826;52.536;13.432;2022-08-11T04:52:43;21.80;39.50
21335;DHT22;10826;52.536;13.432;2022-08-11T04:56:22;21.80;39.40
21335;DHT22;10826;52.536;13.432;2022-08-11T05:09:33;21.80;39.50
21335;DHT22;10826;52.536;13.432;2022-08-11T05:12:31;21.80;39.60
21335;DHT22;10826;52.536;13.432;2022-08-11T05:15:12;21.90;39.80
21335;DHT22;10826;52.536;13.432;2022-08-11T05:18:12;21.80;39.70
21335;DHT22;10826;52.536;13.432;2022-08-11T05:21:06;21.90;39.80
21335;DHT22;10826;52.536;13.432;2022-08-11T05:23:57;21.90;39.80
21335;DHT22;10826;52.536;13.432;2022-08-11T05:26:52;22.00;39.70
21335;DHT22;10826;52.536;13.432;2022-08-11T05:29:47;22.00;39.60
21335;DHT22;10826;52.536;13.432;2022-08-11T05:32:44;22.10;39.50
21335;DHT22;10826;52.536;13.432;2022-08-11T05:35:46;22.10;39.40
21335;DHT22;10826;52.536;13.432;2022-08-11T05:38:24;22.20;39.20
21335;DHT22;10826;52.536;13.432;2022-08-11T05:41:13;22.30;38.90
21335;DHT22;10826;52.536;13.432;2022-08-11T05:44:01;22.40;38.90
21335;DHT22;10826;52.536;13.432;2022-08-11T05:46:48;22.50;38.80
21335;DHT22;10826;52.536;13.432;2022-08-11T05:49:34;22.60;38.70
21335;DHT22;10826;52.536;13.432;2022-08-11T05:52:25;22.60;38.50
21335;DHT22;10826;52.536;13.432;2022-08-11T05:55:12;22.70;38.30
21335;DHT22;10826;52.536;13.432;2022-08-11T05:58:02;22.80;38.30
21335;DHT22;10826;52.536;13.432;2022-08-11T06:00:31;23.00;38.20
21335;DHT22;10826;52.536;13.432;2022-08-11T06:03:07;23.00;38.00
21335;DHT22;10826;52.536;13.432;2022-08-11T06:05:39;23.20;38.10
21335;DHT22;10826;52.536;13.432;2022-08-11T06:08:10;23.20;37.70
21335;DHT22;10826;52.536;13.432;2022-08-11T06:10:40;23.30;37.70
21335;DHT22;10826;52.536;13.432;2022-08-11T06:13:09;23.40;37.50
21335;DHT22;10826;52.536;13.432;2022-08-11T06:15:46;23.40;37.50
21335;DHT22;10826;52.536;13.432;2022-08-11T06:18:14;23.50;37.40
21335;DHT22;10826;52.536;13.432;2022-08-11T06:20:50;23.60;37.20
21335;DHT22;10826;52.536;13.432;2022-08-11T06:23:20;23.70;37.10
21335;DHT22;10826;52.536;13.432;2022-08-11T06:25:52;23.70;37.10
21335;DHT22;10826;52.536;13.432;2022-08-11T06:28:29;23.80;37.30
21335;DHT22;10826;52.536;13.432;2022-08-11T06:30:58;23.90;37.50
21335;DHT22;10826;52.536;13.432;2022-08-11T06:33:37;24.00;37.60
21335;DHT22;10826;52.536;13.432;2022-08-11T06:36:30;24.20;37.50
21335;DHT22;10826;52.536;13.432;2022-08-11T06:40:10;24.30;37.40
21335;DHT22;10826;52.536;13.432;2022-08-11T06:42:59;24.40;37.20
21335;DHT22;10826;52.536;13.432;2022-08-11T06:48:30;24.70;37.30
21335;DHT22;10826;52.536;13.432;2022-08-11T06:51:02;24.80;37.20
21335;DHT22;10826;52.536;13.432;2022-08-11T06:56:37;25.00;36.90
21335;DHT22;10826;52.536;13.432;2022-08-11T06:59:25;25.10;36.50
21335;DHT22;10826;52.536;13.432;2022-08-11T07:02:21;25.20;36.40
21335;DHT22;10826;52.536;13.432;2022-08-11T07:04:58;25.30;36.20
21335;DHT22;10826;52.536;13.432;2022-08-11T07:13:56;25.50;36.10
21335;DHT22;10826;52.536;13.432;2022-08-11T07:16:47;25.50;36.30
21335;DHT22;10826;52.536;13.432;2022-08-11T07:19:19;25.60;36.20
21335;DHT22;10826;52.536;13.432;2022-08-11T07:22:09;25.60;36.10
21335;DHT22;10826;52.536;13.432;2022-08-11T07:25:02;25.70;35.70
21335;DHT22;10826;52.536;13.432;2022-08-11T07:28:02;25.70;35.30
21335;DHT22;10826;52.536;13.432;2022-08-11T07:30:52;25.80;35.30
21335;DHT22;10826;52.536;13.432;2022-08-11T07:33:31;25.80;35.40
21335;DHT22;10826;52.536;13.432;2022-08-11T07:36:12;25.80;35.40
21335;DHT22;10826;52.536;13.432;2022-08-11T07:38:43;25.80;35.40
21335;DHT22;10826;52.536;13.432;2022-08-11T07:41:22;25.90;35.20
21335;DHT22;10826;52.536;13.432;2022-08-11T07:43:54;26.00;35.60
21335;DHT22;10826;52.536;13.432;2022-08-11T07:46:38;26.00;35.60
21335;DHT22;10826;52.536;13.432;2022-08-11T07:49:26;26.00;35.50
21335;DHT22;10826;52.536;13.432;2022-08-11T07:52:12;26.00;35.60
21335;DHT22;10826;52.536;13.432;2022-08-11T07:54:58;26.10;35.70
21335;DHT22;10826;52.536;13.432;2022-08-11T07:57:25;26.10;35.60
21335;DHT22;10826;52.536;13.432;2022-08-11T08:00:12;26.10;35.70
21335;DHT22;10826;52.536;13.432;2022-08-11T08:02:58;26.10;35.70
21335;DHT22;10826;52.536;13.432;2022-08-11T08:05:46;26.20;35.60
21335;DHT22;10826;52.536;13.432;2022-08-11T08:08:32;26.20;35.60
21335;DHT22;10826;52.536;13.432;2022-08-11T08:11:19;26.20;35.70
21335;DHT22;10826;52.536;13.432;2022-08-11T08:14:06;26.30;35.60
21335;DHT22;10826;52.536;13.432;2022-08-11T08:16:54;26.30;35.50
21335;DHT22;10826;52.536;13.432;2022-08-11T08:19:47;26.30;35.40
21335;DHT22;10826;52.536;13.432;2022-08-11T08:22:18;26.40;35.30
21335;DHT22;10826;52.536;13.432;2022-08-11T08:24:44;26.40;35.40
21335;DHT22;10826;52.536;13.432;2022-08-11T08:27:15;26.40;35.40
21335;DHT22;10826;52.536;13.432;2022-08-11T08:29:43;26.50;35.20
21335;DHT22;10826;52.536;13.432;2022-08-11T08:32:29;26.50;34.90
21335;DHT22;10826;52.536;13.432;2022-08-11T08:34:58;26.50;34.70
21335;DHT22;10826;52.536;13.432;2022-08-11T08:37:26;26.60;33.70
21335;DHT22;10826;52.536;13.432;2022-08-11T08:39:53;26.60;33.80
21335;DHT22;10826;52.536;13.432;2022-08-11T08:42:27;26.70;33.90
21335;DHT22;10826;52.536;13.432;2022-08-11T08:45:07;26.70;33.90
21335;DHT22;10826;52.536;13.432;2022-08-11T08:47:38;26.70;33.80
21335;DHT22;10826;52.536;13.432;2022-08-11T08:50:17;26.70;33.80
21335;DHT22;10826;52.536;13.432;2022-08-11T08:53:03;26.80;33.70
21335;DHT22;10826;52.536;13.432;2022-08-11T08:55:32;26.80;33.70
21335;DHT22;10826;52.536;13.432;2022-08-11T08:57:59;26.80;33.80
21335;DHT22;10826;52.536;13.432;2022-08-11T09:00:39;26.90;33.80
21335;DHT22;10826;52.536;13.432;2022-08-11T09:03:09;27.00;34.30
21335;DHT22;10826;52.536;13.432;2022-08-11T09:05:36;27.00;34.40
21335;DHT22;10826;52.536;13.432;2022-08-11T09:08:03;26.90;33.80
21335;DHT22;10826;52.536;13.432;2022-08-11T09:10:30;27.00;34.30
21335;DHT22;10826;52.536;13.432;2022-08-11T09:12:58;27.00;34.10
21335;DHT22;10826;52.536;13.432;2022-08-11T09:15:25;27.10;33.80
21335;DHT22;10826;52.536;13.432;2022-08-11T09:17:54;27.10;33.90
21335;DHT22;10826;52.536;13.432;2022-08-11T09:20:37;27.20;33.70
21335;DHT22;10826;52.536;13.432;2022-08-11T09:23:07;27.20;33.60
21335;DHT22;10826;52.536;13.432;2022-08-11T09:25:56;27.20;32.90
21335;DHT22;10826;52.536;13.432;2022-08-11T09:28:43;27.20;32.70
21335;DHT22;10826;52.536;13.432;2022-08-11T09:31:12;27.30;32.30
21335;DHT22;10826;52.536;13.432;2022-08-11T09:33:40;27.30;32.50
21335;DHT22;10826;52.536;13.432;2022-08-11T09:36:08;27.30;32.80
21335;DHT22;10826;52.536;13.432;2022-08-11T09:38:55;27.40;32.20
21335;DHT22;10826;52.536;13.432;2022-08-11T09:41:42;27.40;31.30
21335;DHT22;10826;52.536;13.432;2022-08-11T09:44:09;27.50;31.10
21335;DHT22;10826;52.536;13.432;2022-08-11T09:46:55;27.50;31.30
21335;DHT22;10826;52.536;13.432;2022-08-11T09:49:25;27.50;31.60
21335;DHT22;10826;52.536;13.432;2022-08-11T09:51:53;27.60;31.80
21335;DHT22;10826;52.536;13.432;2022-08-11T09:54:22;27.60;32.00
21335;DHT22;10826;52.536;13.432;2022-08-11T09:56:52;27.60;32.00
21335;DHT22;10826;52.536;13.432;2022-08-11T09:59:37;27.70;31.70
21335;DHT22;10826;52.536;13.432;2022-08-11T10:02:05;27.70;31.70
21335;DHT22;10826;52.536;13.432;2022-08-11T10:04:42;27.70;31.30
21335;DHT22;10826;52.536;13.432;2022-08-11T10:07:14;27.70;31.70
21335;DHT22;10826;52.536;13.432;2022-08-11T10:09:49;27.80;31.10
21335;DHT22;10826;52.536;13.432;2022-08-11T10:12:26;27.90;30.00
21335;DHT22;10826;52.536;13.432;2022-08-11T10:15:08;27.90;29.60
21335;DHT22;10826;52.536;13.432;2022-08-11T10:17:57;28.00;29.50
21335;DHT22;10826;52.536;13.432;2022-08-11T10:20:47;28.00;29.40
21335;DHT22;10826;52.536;13.432;2022-08-11T10:23:16;28.10;29.00
21335;DHT22;10826;52.536;13.432;2022-08-11T10:26:02;28.10;29.00
21335;DHT22;10826;52.536;13.432;2022-08-11T10:28:49;28.10;28.70
21335;DHT22;10826;52.536;13.432;2022-08-11T10:31:18;28.20;28.20
21335;DHT22;10826;52.536;13.432;2022-08-11T10:34:11;28.20;28.00
21335;DHT22;10826;52.536;13.432;2022-08-11T10:36:41;28.30;27.80
21335;DHT22;10826;52.536;13.432;2022-08-11T10:39:20;28.40;27.70
21335;DHT22;10826;52.536;13.432;2022-08-11T10:41:48;28.50;27.90
21335;DHT22;10826;52.536;13.432;2022-08-11T10:44:44;28.50;28.10
21335;DHT22;10826;52.536;13.432;2022-08-11T10:47:15;28.60;27.70
21335;DHT22;10826;52.536;13.432;2022-08-11T10:50:18;28.60;27.60
21335;DHT22;10826;52.536;13.432;2022-08-11T10:53:03;28.70;27.20
21335;DHT22;10826;52.536;13.432;2022-08-11T10:55:48;28.70;27.20
21335;DHT22;10826;52.536;13.432;2022-08-11T10:58:36;28.70;27.00
21335;DHT22;10826;52.536;13.432;2022-08-11T11:01:15;28.70;26.70
21335;DHT22;10826;52.536;13.432;2022-08-11T11:04:17;28.70;26.50
21335;DHT22;10826;52.536;13.432;2022-08-11T11:06:50;28.80;26.50
21335;DHT22;10826;52.536;13.432;2022-08-11T11:09:30;28.80;26.40
21335;DHT22;10826;52.536;13.432;2022-08-11T11:12:10;28.80;26.40
21335;DHT22;10826;52.536;13.432;2022-08-11T11:15:02;28.90;26.50
21335;DHT22;10826;52.536;13.432;2022-08-11T11:17:52;28.90;26.40
21335;DHT22;10826;52.536;13.432;2022-08-11T11:20:28;29.00;26.90
21335;DHT22;10826;52.536;13.432;2022-08-11T11:23:05;29.00;26.90
21335;DHT22;10826;52.536;13.432;2022-08-11T11:25:45;29.10;26.90
21335;DHT22;10826;52.536;13.432;2022-08-11T11:32:30;29.20;26.40
21335;DHT22;10826;52.536;13.432;2022-08-11T11:38:16;29.30;26.20
21335;DHT22;10826;52.536;13.432;2022-08-11T11:40:43;29.30;26.30
21335;DHT22;10826;52.536;13.432;2022-08-11T11:43:32;29.30;26.00
21335;DHT22;10826;52.536;13.432;2022-08-11T11:46:01;29.40;25.90
21335;DHT22;10826;52.536;13.432;2022-08-11T11:48:31;29.40;25.80
21335;DHT22;10826;52.536;13.432;2022-08-11T11:50:59;29.40;25.60
21335;DHT22;10826;52.536;13.432;2022-08-11T11:53:26;29.40;25.50
21335;DHT22;10826;52.536;13.432;2022-08-11T11:55:52;29.40;25.30
21335;DHT22;10826;52.536;13.432;2022-08-11T11:58:19;29.50;25.40
21335;DHT22;10826;52.536;13.432;2022-08-11T12:01:04;29.50;25.60
21335;DHT22;10826;52.536;13.432;2022-08-11T12:03:42;29.50;25.70
21335;DHT22;10826;52.536;13.432;2022-08-11T12:06:12;29.50;25.70
21335;DHT22;10826;52.536;13.432;2022-08-11T12:08:40;29.50;25.70
21335;DHT22;10826;52.536;13.432;2022-08-11T12:11:10;29.50;25.50
21335;DHT22;10826;52.536;13.432;2022-08-11T12:13:58;29.50;25.50
21335;DHT22;10826;52.536;13.432;2022-08-11T12:16:27;29.60;26.00
21335;DHT22;10826;52.536;13.432;2022-08-11T12:18:57;29.60;25.10
21335;DHT22;10826;52.536;13.432;2022-08-11T12:21:29;29.60;24.90
21335;DHT22;10826;52.536;13.432;2022-08-11T12:23:57;29.70;24.90
21335;DHT22;10826;52.536;13.432;2022-08-11T12:26:44;29.70;24.90
21335;DHT22;10826;52.536;13.432;2022-08-11T12:29:31;29.70;24.90
21335;DHT22;10826;52.536;13.432;2022-08-11T12:31:59;29.70;24.70
21335;DHT22;10826;52.536;13.432;2022-08-11T12:34:26;29.70;24.70
21335;DHT22;10826;52.536;13.432;2022-08-11T12:36:59;29.80;24.60
21335;DHT22;10826;52.536;13.432;2022-08-11T12:39:36;29.80;24.50
21335;DHT22;10826;52.536;13.432;2022-08-11T12:42:21;29.90;24.40
21335;DHT22;10826;52.536;13.432;2022-08-11T12:45:26;29.90;24.50
21335;DHT22;10826;52.536;13.432;2022-08-11T12:48:15;29.90;24.70
21335;DHT22;10826;52.536;13.432;2022-08-11T12:51:34;29.90;24.30
21335;DHT22;10826;52.536;13.432;2022-08-11T12:57:36;29.90;24.60
21335;DHT22;10826;52.536;13.432;2022-08-11T13:00:26;29.90;24.90
21335;DHT22;10826;52.536;13.432;2022-08-11T13:03:13;29.90;25.00
21335;DHT22;10826;52.536;13.432;2022-08-11T13:06:03;29.80;25.00
21335;DHT22;10826;52.536;13.432;2022-08-11T13:08:34;29.80;24.80
21335;DHT22;10826;52.536;13.432;2022-08-11T13:11:02;29.90;24.70
21335;DHT22;10826;52.536;13.432;2022-08-11T13:13:48;29.90;26.10
21335;DHT22;10826;52.536;13.432;2022-08-11T13:16:17;29.90;25.80
21335;DHT22;10826;52.536;13.432;2022-08-11T13:18:45;29.90;26.40
21335;DHT22;10826;52.536;13.432;2022-08-11T13:21:13;29.90;27.80
21335;DHT22;10826;52.536;13.432;2022-08-11T13:23:41;29.90;27.20
21335;DHT22;10826;52.536;13.432;2022-08-11T13:26:07;29.90;27.90
21335;DHT22;10826;52.536;13.432;2022-08-11T13:28:39;29.80;28.30
21335;DHT22;10826;52.536;13.432;2022-08-11T13:31:05;29.80;28.60
21335;DHT22;10826;52.536;13.432;2022-08-11T13:33:46;29.70;28.70
21335;DHT22;10826;52.536;13.432;2022-08-11T13:36:21;29.70;27.30
21335;DHT22;10826;52.536;13.432;2022-08-11T13:38:54;29.60;26.70
21335;DHT22;10826;52.536;13.432;2022-08-11T13:41:24;29.50;26.10
21335;DHT22;10826;52.536;13.432;2022-08-11T13:44:12;29.50;25.30
21335;DHT22;10826;52.536;13.432;2022-08-11T13:46:40;29.50;25.90
21335;DHT22;10826;52.536;13.432;2022-08-11T13:49:08;29.50;24.70
21335;DHT22;10826;52.536;13.432;2022-08-11T13:51:38;29.50;25.20
21335;DHT22;10826;52.536;13.432;2022-08-11T13:54:08;29.50;24.80
21335;DHT22;10826;52.536;13.432;2022-08-11T13:56:37;29.50;25.10
21335;DHT22;10826;52.536;13.432;2022-08-11T13:59:07;29.60;25.50
21335;DHT22;10826;52.536;13.432;2022-08-11T14:01:38;29.50;26.00
21335;DHT22;10826;52.536;13.432;2022-08-11T14:04:11;29.50;26.20
21335;DHT22;10826;52.536;13.432;2022-08-11T14:06:45;29.50;25.70
21335;DHT22;10826;52.536;13.432;2022-08-11T14:09:25;29.40;24.60
21335;DHT22;10826;52.536;13.432;2022-08-11T14:12:00;29.40;23.70
21335;DHT22;10826;52.536;13.432;2022-08-11T14:15:00;29.40;23.50
21335;DHT22;10826;52.536;13.432;2022-08-11T14:17:33;29.40;23.50
21335;DHT22;10826;52.536;13.432;2022-08-11T14:20:05;29.50;23.30
21335;DHT22;10826;52.536;13.432;2022-08-11T14:22:34;29.50;23.10
21335;DHT22;10826;52.536;13.432;2022-08-11T14:25:05;29.50;24.00
21335;DHT22;10826;52.536;13.432;2022-08-11T14:27:32;29.60;23.90
21335;DHT22;10826;52.536;13.432;2022-08-11T14:29:58;29.60;23.20
21335;DHT22;10826;52.536;13.432;2022-08-11T14:32:25;29.60;22.80
21335;DHT22;10826;52.536;13.432;2022-08-11T14:34:52;29.60;23.20
21335;DHT22;10826;52.536;13.432;2022-08-11T14:37:21;29.60;23.50
21335;DHT22;10826;52.536;13.432;2022-08-11T14:39:51;29.60;23.90
21335;DHT22;10826;52.536;13.432;2022-08-11T14:42:22;29.50;22.90
21335;DHT22;10826;52.536;13.432;2022-08-11T14:45:17;29.60;22.20
21335;DHT22;10826;52.536;13.432;2022-08-11T14:48:04;29.60;22.00
21335;DHT22;10826;52.536;13.432;2022-08-11T14:50:34;29.60;22.30
21335;DHT22;10826;52.536;13.432;2022-08-11T14:53:09;29.60;23.20
21335;DHT22;10826;52.536;13.432;2022-08-11T14:55:39;29.60;22.30
21335;DHT22;10826;52.536;13.432;2022-08-11T14:58:29;29.60;22.50
21335;DHT22;10826;52.536;13.432;2022-08-11T15:01:00;29.60;22.50
21335;DHT22;10826;52.536;13.432;2022-08-11T15:03:30;29.60;21.90
21335;DHT22;10826;52.536;13.432;2022-08-11T15:06:00;29.60;22.40
21335;DHT22;10826;52.536;13.432;2022-08-11T15:08:30;29.70;21.70
21335;DHT22;10826;52.536;13.432;2022-08-11T15:11:19;29.70;22.50
21335;DHT22;10826;52.536;13.432;2022-08-11T15:14:07;29.70;23.10
21335;DHT22;10826;52.536;13.432;2022-08-11T15:16:41;29.60;22.10
21335;DHT22;10826;52.536;13.432;2022-08-11T15:19:29;29.60;21.70
21335;DHT22;10826;52.536;13.432;2022-08-11T15:21:57;29.60;21.90
21335;DHT22;10826;52.536;13.432;2022-08-11T15:24:41;29.60;21.60
21335;DHT22;10826;52.536;13.432;2022-08-11T15:27:11;29.60;21.80
21335;DHT22;10826;52.536;13.432;2022-08-11T15:30:02;29.70;21.60
21335;DHT22;10826;52.536;13.432;2022-08-11T15:32:49;29.60;21.50
21335;DHT22;10826;52.536;13.432;2022-08-11T15:35:37;29.70;22.00
21335;DHT22;10826;52.536;13.432;2022-08-11T15:38:23;29.60;22.10
21335;DHT22;10826;52.536;13.432;2022-08-11T15:40:53;29.70;22.80
21335;DHT22;10826;52.536;13.432;2022-08-11T15:43:48;29.70;21.80
21335;DHT22;10826;52.536;13.432;2022-08-11T15:46:41;29.70;21.00
21335;DHT22;10826;52.536;13.432;2022-08-11T15:49:22;29.70;20.80
21335;DHT22;10826;52.536;13.432;2022-08-11T15:52:02;29.70;20.40
21335;DHT22;10826;52.536;13.432;2022-08-11T15:54:34;29.70;20.30
21335;DHT22;10826;52.536;13.432;2022-08-11T15:57:06;29.70;21.60
21335;DHT22;10826;52.536;13.432;2022-08-11T15:59:37;29.70;21.80
21335;DHT22;10826;52.536;13.432;2022-08-11T16:02:24;29.70;21.20
21335;DHT22;10826;52.536;13.432;2022-08-11T16:05:02;29.70;20.30
21335;DHT22;10826;52.536;13.432;2022-08-11T16:07:34;29.70;20.00
21335;DHT22;10826;52.536;13.432;2022-08-11T16:10:05;29.70;19.80
21335;DHT22;10826;52.536;13.432;2022-08-11T16:12:40;29.70;19.70
21335;DHT22;10826;52.536;13.432;2022-08-11T16:15:37;29.70;19.60
21335;DHT22;10826;52.536;13.432;2022-08-11T16:18:30;29.70;19.80
21335;DHT22;10826;52.536;13.432;2022-08-11T16:21:17;29.80;19.90
21335;DHT22;10826;52.536;13.432;2022-08-11T16:23:49;29.80;19.80
21335;DHT22;10826;52.536;13.432;2022-08-11T16:26:20;29.90;19.70
21335;DHT22;10826;52.536;13.432;2022-08-11T16:28:52;29.90;19.60
21335;DHT22;10826;52.536;13.432;2022-08-11T16:31:21;29.90;20.40
21335;DHT22;10826;52.536;13.432;2022-08-11T16:33:50;29.90;20.10
21335;DHT22;10826;52.536;13.432;2022-08-11T16:36:19;29.90;19.70
21335;DHT22;10826;52.536;13.432;2022-08-11T16:39:09;29.90;19.30
21335;DHT22;10826;52.536;13.432;2022-08-11T16:41:39;29.90;19.30
21335;DHT22;10826;52.536;13.432;2022-08-11T16:44:26;29.90;19.90
21335;DHT22;10826;52.536;13.432;2022-08-11T16:47:13;29.90;20.40
21335;DHT22;10826;52.536;13.432;2022-08-11T16:49:49;29.90;20.30
21335;DHT22;10826;52.536;13.432;2022-08-11T16:52:17;29.90;20.60
21335;DHT22;10826;52.536;13.432;2022-08-11T16:54:44;29.90;20.20
21335;DHT22;10826;52.536;13.432;2022-08-11T16:57:25;30.00;20.50
21335;DHT22;10826;52.536;13.432;2022-08-11T17:00:13;29.90;19.70
21335;DHT22;10826;52.536;13.432;2022-08-11T17:02:51;29.90;19.60
21335;DHT22;10826;52.536;13.432;2022-08-11T17:05:43;29.90;19.90
21335;DHT22;10826;52.536;13.432;2022-08-11T17:08:36;29.90;19.90
21335;DHT22;10826;52.536;13.432;2022-08-11T17:11:28;29.90;20.70
21335;DHT22;10826;52.536;13.432;2022-08-11T17:14:21;29.80;20.50
21335;DHT22;10826;52.536;13.432;2022-08-11T17:16:51;29.80;20.10
21335;DHT22;10826;52.536;13.432;2022-08-11T17:19:23;29.80;19.90
21335;DHT22;10826;52.536;13.432;2022-08-11T17:21:52;29.80;19.60
21335;DHT22;10826;52.536;13.432;2022-08-11T17:24:44;29.70;20.10
21335;DHT22;10826;52.536;13.432;2022-08-11T17:27:14;29.70;20.10
21335;DHT22;10826;52.536;13.432;2022-08-11T17:29:51;29.60;20.50
21335;DHT22;10826;52.536;13.432;2022-08-11T17:32:29;29.70;20.20
21335;DHT22;10826;52.536;13.432;2022-08-11T17:35:25;29.70;20.30
21335;DHT22;10826;52.536;13.432;2022-08-11T17:38:10;29.60;19.90
21335;DHT22;10826;52.536;13.432;2022-08-11T17:40:41;29.60;20.00
21335;DHT22;10826;52.536;13.432;2022-08-11T17:43:29;29.50;20.70
21335;DHT22;10826;52.536;13.432;2022-08-11T17:46:16;29.50;20.50
21335;DHT22;10826;52.536;13.432;2022-08-11T17:49:04;29.40;20.00
21335;DHT22;10826;52.536;13.432;2022-08-11T17:51:33;29.40;21.10
21335;DHT22;10826;52.536;13.432;2022-08-11T17:54:20;29.30;21.80
21335;DHT22;10826;52.536;13.432;2022-08-11T17:57:07;29.30;21.30
21335;DHT22;10826;52.536;13.432;2022-08-11T17:59:54;29.20;21.30
21335;DHT22;10826;52.536;13.432;2022-08-11T18:02:29;29.20;21.90
21335;DHT22;10826;52.536;13.432;2022-08-11T18:05:20;29.10;21.20
21335;DHT22;10826;52.536;13.432;2022-08-11T18:07:52;29.10;21.10
21335;DHT22;10826;52.536;13.432;2022-08-11T18:10:39;29.00;20.90
21335;DHT22;10826;52.536;13.432;2022-08-11T18:13:28;29.00;20.90
21335;DHT22;10826;52.536;13.432;2022-08-11T18:16:15;28.90;20.60
21335;DHT22;10826;52.536;13.432;2022-08-11T18:19:01;28.90;21.30
21335;DHT22;10826;52.536;13.432;2022-08-11T18:21:48;28.90;21.50
21335;DHT22;10826;52.536;13.432;2022-08-11T18:24:39;28.80;20.90
21335;DHT22;10826;52.536;13.432;2022-08-11T18:27:30;28.80;20.70
21335;DHT22;10826;52.536;13.432;2022-08-11T18:30:17;28.70;20.80
21335;DHT22;10826;52.536;13.432;2022-08-11T18:33:03;28.70;20.90
21335;DHT22;10826;52.536;13.432;2022-08-11T18:35:53;28.60;20.90
21335;DHT22;10826;52.536;13.432;2022-08-11T18:38:45;28.60;21.70
21335;DHT22;10826;52.536;13.432;2022-08-11T18:41:35;28.50;21.80
21335;DHT22;10826;52.536;13.432;2022-08-11T18:44:25;28.50;21.70
21335;DHT22;10826;52.536;13.432;2022-08-11T18:47:15;28.40;21.50
21335;DHT22;10826;52.536;13.432;2022-08-11T18:50:03;28.30;21.50
21335;DHT22;10826;52.536;13.432;2022-08-11T18:52:54;28.30;21.60
21335;DHT22;10826;52.536;13.432;2022-08-11T18:55:42;28.30;21.70
21335;DHT22;10826;52.536;13.432;2022-08-11T18:58:30;28.20;21.80
21335;DHT22;10826;52.536;13.432;2022-08-11T19:01:18;28.20;21.90
21335;DHT22;10826;52.536;13.432;2022-08-11T19:04:05;28.20;22.00
21335;DHT22;10826;52.536;13.432;2022-08-11T19:06:55;28.10;22.10
21335;DHT22;10826;52.536;13.432;2022-08-11T19:09:43;28.10;22.20
21335;DHT22;10826;52.536;13.432;2022-08-11T19:12:40;28.10;22.30
21335;DHT22;10826;52.536;13.432;2022-08-11T19:15:26;28.10;22.30
21335;DHT22;10826;52.536;13.432;2022-08-11T19:18:17;28.00;22.60
21335;DHT22;10826;52.536;13.432;2022-08-11T19:21:06;27.90;22.90
21335;DHT22;10826;52.536;13.432;2022-08-11T19:23:55;27.90;22.30
21335;DHT22;10826;52.536;13.432;2022-08-11T19:26:44;27.80;22.30
21335;DHT22;10826;52.536;13.432;2022-08-11T19:29:37;27.80;22.50
21335;DHT22;10826;52.536;13.432;2022-08-11T19:32:25;27.80;22.70
21335;DHT22;10826;52.536;13.432;2022-08-11T19:35:12;27.80;22.80
21335;DHT22;10826;52.536;13.432;2022-08-11T19:37:59;27.70;22.90
21335;DHT22;10826;52.536;13.432;2022-08-11T19:40:45;27.70;23.00